createdAt,value
2023-05-10T00:00:09.730Z,26.52
2023-05-10T00:01:09.721Z,26.51
2023-05-10T00:02:09.836Z,26.51
2023-05-10T00:03:09.887Z,26.52
2023-05-10T00:04:09.980Z,26.52
2023-05-10T00:05:09.819Z,26.51
2023-05-10T00:06:09.859Z,26.51
2023-05-10T00:07:09.891Z,26.51
2023-05-10T00:08:09.936Z,26.51
2023-05-10T00:09:09.906Z,26.51
2023-05-10T00:10:09.933Z,26.52
2023-05-10T00:11:09.998Z,26.52
2023-05-10T00:12:10.019Z,26.52
2023-05-10T00:13:10.079Z,26.52
2023-05-10T00:14:10.035Z,26.52
2023-05-10T00:15:10.092Z,26.52
2023-05-10T00:16:10.091Z,26.51
2023-05-10T00:17:10.120Z,26.52
2023-05-10T00:18:10.163Z,26.52
2023-05-10T00:19:10.178Z,26.52
2023-05-10T00:20:10.177Z,26.52
2023-05-10T00:21:10.219Z,26.52
2023-05-10T00:22:10.214Z,26.52
2023-05-10T00:23:10.244Z,26.52
2023-05-10T00:24:10.267Z,26.52
2023-05-10T00:25:10.290Z,26.52
2023-05-10T00:26:10.283Z,26.51
2023-05-10T00:27:10.321Z,26.52
2023-05-10T00:28:10.366Z,26.52
2023-05-10T00:29:10.360Z,26.51
2023-05-10T00:30:10.390Z,26.52
2023-05-10T00:31:10.393Z,26.52
2023-05-10T00:32:10.484Z,26.53
2023-05-10T00:33:10.516Z,26.52
2023-05-10T00:34:10.436Z,26.52
2023-05-10T00:35:10.446Z,26.52
2023-05-10T00:36:10.448Z,26.52
2023-05-10T00:37:10.505Z,26.52
2023-05-10T00:38:10.491Z,26.52
2023-05-10T00:39:10.531Z,26.52
2023-05-10T00:40:10.549Z,26.52
2023-05-10T00:41:10.575Z,26.52
2023-05-10T00:42:10.600Z,26.52
2023-05-10T00:43:10.601Z,26.52
2023-05-10T00:44:10.622Z,26.52
2023-05-10T00:45:10.651Z,26.52
2023-05-10T00:46:10.689Z,26.52
2023-05-10T00:47:10.674Z,26.52
2023-05-10T00:48:10.733Z,26.52
2023-05-10T00:49:10.756Z,26.52
2023-05-10T00:50:10.778Z,26.52
2023-05-10T00:51:10.797Z,26.52
2023-05-10T00:52:10.794Z,26.53
2023-05-10T00:53:10.826Z,26.53
2023-05-10T00:54:10.863Z,26.53
2023-05-10T00:55:10.889Z,26.52
2023-05-10T00:56:10.897Z,26.53
2023-05-10T00:57:10.914Z,26.53
2023-05-10T00:58:10.932Z,26.52
2023-05-10T00:59:10.926Z,26.52
2023-05-10T01:00:10.978Z,26.53
2023-05-10T01:01:11.041Z,26.53
2023-05-10T01:02:11.037Z,26.53
2023-05-10T01:03:11.077Z,26.53
2023-05-10T01:04:11.031Z,26.53
2023-05-10T01:05:11.158Z,26.52
2023-05-10T01:06:11.095Z,26.52
2023-05-10T01:07:11.103Z,26.53
2023-05-10T01:08:11.146Z,26.52
2023-05-10T01:09:11.172Z,26.53
2023-05-10T01:10:11.175Z,26.52
2023-05-10T01:11:11.213Z,26.53
2023-05-10T01:12:11.282Z,26.52
2023-05-10T01:13:11.260Z,26.53
2023-05-10T01:14:11.255Z,26.53
2023-05-10T01:15:11.266Z,26.53
2023-05-10T01:16:11.368Z,26.53
2023-05-10T01:17:11.344Z,26.54
2023-05-10T01:18:11.361Z,26.53
2023-05-10T01:19:11.386Z,26.53
2023-05-10T01:20:11.429Z,26.52
2023-05-10T01:21:11.426Z,26.53
2023-05-10T01:22:11.470Z,26.53
2023-05-10T01:23:11.492Z,26.52
2023-05-10T01:24:11.504Z,26.53
2023-05-10T01:25:11.517Z,26.53
2023-05-10T01:26:11.551Z,26.53
2023-05-10T01:27:11.575Z,26.53
2023-05-10T01:28:11.595Z,26.53
2023-05-10T01:29:11.626Z,26.53
2023-05-10T01:30:16.009Z,26.53
2023-05-10T01:31:11.658Z,26.52
2023-05-10T01:32:11.637Z,26.52
2023-05-10T01:33:11.627Z,26.54
2023-05-10T01:34:11.622Z,26.53
2023-05-10T01:35:11.622Z,26.53
2023-05-10T01:36:11.603Z,26.53
2023-05-10T01:37:11.558Z,26.53
2023-05-10T01:38:11.582Z,26.54
2023-05-10T01:39:11.564Z,26.54
2023-05-10T01:40:11.550Z,26.53
2023-05-10T01:41:11.573Z,26.53
2023-05-10T01:42:11.526Z,26.54
2023-05-10T01:43:11.541Z,26.53
2023-05-10T01:44:11.549Z,26.53
2023-05-10T01:45:11.513Z,26.53
2023-05-10T01:46:11.650Z,26.53
2023-05-10T01:47:11.496Z,26.53
2023-05-10T01:48:11.574Z,26.54
2023-05-10T01:49:11.511Z,26.53
2023-05-10T01:50:11.505Z,26.53
2023-05-10T01:51:11.492Z,26.54
2023-05-10T01:52:11.502Z,26.54
2023-05-10T01:53:11.471Z,26.53
2023-05-10T01:54:11.437Z,26.53
2023-05-10T01:55:11.437Z,26.53
2023-05-10T01:56:11.476Z,26.54
2023-05-10T01:57:11.449Z,26.53
2023-05-10T01:58:11.440Z,26.54
2023-05-10T01:59:11.438Z,26.53
2023-05-10T02:00:11.417Z,26.54
2023-05-10T02:01:11.479Z,26.53
2023-05-10T02:02:11.403Z,26.53
2023-05-10T02:03:11.503Z,26.54
2023-05-10T02:04:11.487Z,26.53
2023-05-10T02:05:11.415Z,26.54
2023-05-10T02:06:11.402Z,26.54
2023-05-10T02:07:11.375Z,26.53
2023-05-10T02:08:11.379Z,26.53
2023-05-10T02:09:11.369Z,26.54
2023-05-10T02:10:11.355Z,26.54
2023-05-10T02:11:11.388Z,26.54
2023-05-10T02:12:11.392Z,26.53
2023-05-10T02:13:11.426Z,26.54
2023-05-10T02:14:11.402Z,26.54
2023-05-10T02:15:11.433Z,26.54
2023-05-10T02:16:11.491Z,26.54
2023-05-10T02:17:11.459Z,26.54
2023-05-10T02:18:11.511Z,26.54
2023-05-10T02:19:11.519Z,26.53
2023-05-10T02:20:11.509Z,26.54
2023-05-10T02:21:11.556Z,26.54
2023-05-10T02:22:11.527Z,26.55
2023-05-10T02:23:11.599Z,26.55
2023-05-10T02:24:11.586Z,26.54
2023-05-10T02:25:11.586Z,26.54
2023-05-10T02:26:11.625Z,26.54
2023-05-10T02:27:11.638Z,26.54
2023-05-10T02:28:11.685Z,26.54
2023-05-10T02:29:11.666Z,26.54
2023-05-10T02:30:11.732Z,26.54
2023-05-10T02:31:11.724Z,26.54
2023-05-10T02:32:11.879Z,26.54
2023-05-10T02:33:11.720Z,26.54
2023-05-10T02:34:11.756Z,26.54
2023-05-10T02:35:11.752Z,26.54
2023-05-10T02:36:11.812Z,26.54
2023-05-10T02:37:11.801Z,26.54
2023-05-10T02:38:11.828Z,26.54
2023-05-10T02:39:11.813Z,26.54
2023-05-10T02:40:11.873Z,26.54
2023-05-10T02:41:11.890Z,26.54
2023-05-10T02:42:11.920Z,26.54
2023-05-10T02:43:11.910Z,26.54
2023-05-10T02:44:11.933Z,26.54
2023-05-10T02:45:11.935Z,26.54
2023-05-10T02:46:11.960Z,26.54
2023-05-10T02:47:11.957Z,26.54
2023-05-10T02:48:11.992Z,26.54
2023-05-10T02:49:11.994Z,26.54
2023-05-10T02:50:12.014Z,26.54
2023-05-10T02:51:12.046Z,26.54
2023-05-10T02:52:12.051Z,26.54
2023-05-10T02:53:12.080Z,26.55
2023-05-10T02:54:12.084Z,26.54
2023-05-10T02:55:12.085Z,26.54
2023-05-10T02:56:12.076Z,26.54
2023-05-10T02:57:12.110Z,26.54
2023-05-10T02:58:12.200Z,26.54
2023-05-10T02:59:12.114Z,26.55
2023-05-10T03:00:12.114Z,26.54
2023-05-10T03:01:12.192Z,26.54
2023-05-10T03:02:12.145Z,26.54
2023-05-10T03:03:12.179Z,26.54
2023-05-10T03:04:12.205Z,26.54
2023-05-10T03:05:12.192Z,26.54
2023-05-10T03:06:12.219Z,26.54
2023-05-10T03:07:12.217Z,26.54
2023-05-10T03:08:12.250Z,26.54
2023-05-10T03:09:12.268Z,26.54
2023-05-10T03:10:12.317Z,26.54
2023-05-10T03:11:12.321Z,26.54
2023-05-10T03:12:12.349Z,26.55
2023-05-10T03:13:12.443Z,26.54
2023-05-10T03:14:12.409Z,26.54
2023-05-10T03:15:12.386Z,26.54
2023-05-10T03:16:12.410Z,26.54
2023-05-10T03:17:12.425Z,26.54
2023-05-10T03:18:12.495Z,26.55
2023-05-10T03:19:12.490Z,26.55
2023-05-10T03:20:12.480Z,26.55
2023-05-10T03:21:12.475Z,26.55
2023-05-10T03:22:12.502Z,26.54
2023-05-10T03:23:12.528Z,26.54
2023-05-10T03:24:12.533Z,26.54
2023-05-10T03:25:12.588Z,26.54
2023-05-10T03:26:12.578Z,26.54
2023-05-10T03:27:12.607Z,26.54
2023-05-10T03:28:12.609Z,26.55
2023-05-10T03:29:12.605Z,26.54
2023-05-10T03:30:12.656Z,26.54
2023-05-10T03:31:12.751Z,26.54
2023-05-10T03:32:12.706Z,26.54
2023-05-10T03:33:12.709Z,26.54
2023-05-10T03:34:12.716Z,26.55
2023-05-10T03:35:12.747Z,26.54
2023-05-10T03:36:12.773Z,26.55
2023-05-10T03:37:12.758Z,26.54
2023-05-10T03:38:12.807Z,26.54
2023-05-10T03:39:12.822Z,26.54
2023-05-10T03:40:12.844Z,26.55
2023-05-10T03:41:12.876Z,26.55
2023-05-10T03:42:12.927Z,26.55
2023-05-10T03:43:12.915Z,26.54
2023-05-10T03:44:12.928Z,26.55
2023-05-10T03:45:12.977Z,26.55
2023-05-10T03:46:12.972Z,26.54
2023-05-10T03:47:12.939Z,26.54
2023-05-10T03:48:13.008Z,26.54
2023-05-10T03:49:13.029Z,26.54
2023-05-10T03:50:13.016Z,26.55
2023-05-10T03:51:13.005Z,26.55
2023-05-10T03:52:13.027Z,26.55
2023-05-10T03:53:13.113Z,26.55
2023-05-10T03:54:13.064Z,26.55
2023-05-10T03:55:13.114Z,26.55
2023-05-10T03:56:13.097Z,26.55
2023-05-10T03:57:13.149Z,26.55
2023-05-10T03:58:13.165Z,26.55
2023-05-10T03:59:13.184Z,26.55
2023-05-10T04:00:13.170Z,26.55
2023-05-10T04:01:13.205Z,26.54
2023-05-10T04:02:13.305Z,26.55
2023-05-10T04:03:13.280Z,26.55
2023-05-10T04:04:13.393Z,26.55
2023-05-10T04:05:13.315Z,26.55
2023-05-10T04:06:13.331Z,26.55
2023-05-10T04:07:13.315Z,26.55
2023-05-10T04:08:13.327Z,26.55
2023-05-10T04:09:13.355Z,26.55
2023-05-10T04:10:13.344Z,26.55
2023-05-10T04:11:13.381Z,26.55
2023-05-10T04:12:13.383Z,26.55
2023-05-10T04:13:13.456Z,26.55
2023-05-10T04:14:13.453Z,26.54
2023-05-10T04:15:13.443Z,26.54
2023-05-10T04:16:13.443Z,26.54
2023-05-10T04:17:13.644Z,26.55
2023-05-10T04:18:13.449Z,26.55
2023-05-10T04:19:13.481Z,26.55
2023-05-10T04:20:13.540Z,26.55
2023-05-10T04:21:13.493Z,26.55
2023-05-10T04:22:13.491Z,26.55
2023-05-10T04:23:13.507Z,26.55
2023-05-10T04:24:13.606Z,26.55
2023-05-10T04:25:13.537Z,26.55
2023-05-10T04:26:13.570Z,26.55
2023-05-10T04:27:13.569Z,26.55
2023-05-10T04:28:13.593Z,26.55
2023-05-10T04:29:13.610Z,26.54
2023-05-10T04:30:13.616Z,26.56
2023-05-10T04:31:13.656Z,26.56
2023-05-10T04:32:13.660Z,26.55
2023-05-10T04:33:13.660Z,26.56
2023-05-10T04:34:13.671Z,26.56
2023-05-10T04:35:13.681Z,26.55
2023-05-10T04:36:13.694Z,26.56
2023-05-10T04:37:13.702Z,26.55
2023-05-10T04:38:13.720Z,26.55
2023-05-10T04:39:13.739Z,26.55
2023-05-10T04:40:13.846Z,26.55
2023-05-10T04:41:13.764Z,26.54
2023-05-10T04:42:13.791Z,26.55
2023-05-10T04:43:13.807Z,26.56
2023-05-10T04:44:13.818Z,26.56
2023-05-10T04:45:13.802Z,26.55
2023-05-10T04:46:13.881Z,26.55
2023-05-10T04:47:13.836Z,26.55
2023-05-10T04:48:13.859Z,26.55
2023-05-10T04:49:13.851Z,26.55
2023-05-10T04:50:13.903Z,26.55
2023-05-10T04:51:13.890Z,26.55
2023-05-10T04:52:13.898Z,26.56
2023-05-10T04:53:15.873Z,26.56
2023-05-10T04:54:13.907Z,26.56
2023-05-10T04:55:13.909Z,26.56
2023-05-10T04:56:13.948Z,26.55
2023-05-10T04:57:13.934Z,26.56
2023-05-10T04:58:13.938Z,26.56
2023-05-10T04:59:13.938Z,26.56
2023-05-10T05:00:14.073Z,26.56
2023-05-10T05:01:21.027Z,26.56
2023-05-10T05:02:13.958Z,26.55
2023-05-10T05:03:14.078Z,26.56
2023-05-10T05:04:13.940Z,26.56
2023-05-10T05:05:13.950Z,26.56
2023-05-10T05:06:14.779Z,26.56
2023-05-10T05:07:13.947Z,26.56
2023-05-10T05:08:13.952Z,26.56
2023-05-10T05:09:13.931Z,26.57
2023-05-10T05:10:14.009Z,26.57
2023-05-10T05:11:13.919Z,26.57
2023-05-10T05:12:13.936Z,26.57
2023-05-10T05:13:13.947Z,26.57
2023-05-10T05:14:13.895Z,26.57
2023-05-10T05:15:13.872Z,26.57
2023-05-10T05:16:13.936Z,26.57
2023-05-10T05:17:13.901Z,26.57
2023-05-10T05:18:13.872Z,26.57
2023-05-10T05:19:13.875Z,26.57
2023-05-10T05:20:13.940Z,26.57
2023-05-10T05:21:13.888Z,26.57
2023-05-10T05:22:13.854Z,26.57
2023-05-10T05:23:13.887Z,26.57
2023-05-10T05:24:13.879Z,26.57
2023-05-10T05:25:13.886Z,26.57
2023-05-10T05:26:13.896Z,26.57
2023-05-10T05:27:13.824Z,26.57
2023-05-10T05:28:13.823Z,26.58
2023-05-10T05:29:13.813Z,26.59
2023-05-10T05:30:13.806Z,26.58
2023-05-10T05:31:13.854Z,26.58
2023-05-10T05:32:13.820Z,26.58
2023-05-10T05:33:13.791Z,26.57
2023-05-10T05:34:13.808Z,26.55
2023-05-10T05:35:13.783Z,26.54
2023-05-10T05:36:13.787Z,26.54
2023-05-10T05:37:13.756Z,26.55
2023-05-10T05:38:13.804Z,26.56
2023-05-10T05:39:13.818Z,26.54
2023-05-10T05:40:13.756Z,26.53
2023-05-10T05:41:13.789Z,26.51
2023-05-10T05:42:13.760Z,26.47
2023-05-10T05:43:13.758Z,26.41
2023-05-10T05:44:13.875Z,26.34
2023-05-10T05:45:13.798Z,26.28
2023-05-10T05:46:20.794Z,26.26
2023-05-10T05:47:13.743Z,26.24
2023-05-10T05:48:13.722Z,26.23
2023-05-10T05:49:13.683Z,26.25
2023-05-10T05:50:13.683Z,26.25
2023-05-10T05:51:13.667Z,26.23
2023-05-10T05:52:13.643Z,26.22
2023-05-10T05:53:13.689Z,26.23
2023-05-10T05:54:13.822Z,26.24
2023-05-10T05:55:13.665Z,26.25
2023-05-10T05:56:13.614Z,26.26
2023-05-10T05:57:13.671Z,26.28
2023-05-10T05:58:13.641Z,26.28
2023-05-10T05:59:13.826Z,26.30
2023-05-10T06:00:13.616Z,26.30
2023-05-10T06:01:13.621Z,26.31
2023-05-10T06:02:13.675Z,26.32
2023-05-10T06:03:13.677Z,26.32
2023-05-10T06:04:13.705Z,26.33
2023-05-10T06:05:13.631Z,26.33
2023-05-10T06:06:13.600Z,26.33
2023-05-10T06:07:13.602Z,26.33
2023-05-10T06:08:13.575Z,26.34
2023-05-10T06:09:13.858Z,26.35
2023-05-10T06:10:13.567Z,26.34
2023-05-10T06:11:13.575Z,26.34
2023-05-10T06:12:13.537Z,26.33
2023-05-10T06:13:13.564Z,26.34
2023-05-10T06:14:13.834Z,26.33
2023-05-10T06:15:13.785Z,26.33
2023-05-10T06:16:13.744Z,26.34
2023-05-10T06:17:13.694Z,26.34
2023-05-10T06:18:13.838Z,26.33
2023-05-10T06:19:13.806Z,26.33
2023-05-10T06:20:13.844Z,26.32
2023-05-10T06:21:13.867Z,26.31
2023-05-10T06:22:13.901Z,26.32
2023-05-10T06:23:13.974Z,26.31
2023-05-10T06:24:14.033Z,26.31
2023-05-10T06:25:14.177Z,26.30
2023-05-10T06:26:14.143Z,26.30
2023-05-10T06:27:14.195Z,26.30
2023-05-10T06:28:14.209Z,26.30
2023-05-10T06:29:14.276Z,26.30
2023-05-10T06:30:14.367Z,26.30
2023-05-10T06:31:14.372Z,26.29
2023-05-10T06:32:14.377Z,26.29
2023-05-10T06:33:14.463Z,26.30
2023-05-10T06:34:14.496Z,26.28
2023-05-10T06:35:14.612Z,26.28
2023-05-10T06:36:14.622Z,26.28
2023-05-10T06:37:14.648Z,26.29
2023-05-10T06:38:14.672Z,26.28
2023-05-10T06:39:14.787Z,26.27
2023-05-10T06:40:14.779Z,26.26
2023-05-10T06:41:14.832Z,26.26
2023-05-10T06:42:14.857Z,26.26
2023-05-10T06:43:15.820Z,26.25
2023-05-10T06:44:15.946Z,26.23
2023-05-10T06:45:15.051Z,26.22
2023-05-10T06:46:14.974Z,26.22
2023-05-10T06:47:14.883Z,26.21
2023-05-10T06:48:15.022Z,26.21
2023-05-10T06:49:14.916Z,26.21
2023-05-10T06:50:14.978Z,26.21
2023-05-10T06:51:14.891Z,26.21
2023-05-10T06:52:14.852Z,26.21
2023-05-10T06:53:14.872Z,26.21
2023-05-10T06:54:14.837Z,26.21
2023-05-10T06:55:15.114Z,26.22
2023-05-10T06:56:14.860Z,26.22
2023-05-10T06:57:27.519Z,26.22
2023-05-10T06:58:15.870Z,26.21
2023-05-10T06:59:14.852Z,26.23
2023-05-10T07:00:14.980Z,26.22
2023-05-10T07:01:15.068Z,26.22
2023-05-10T07:02:15.006Z,26.22
2023-05-10T07:03:14.831Z,26.21
2023-05-10T07:04:14.862Z,26.20
2023-05-10T07:05:14.811Z,26.20
2023-05-10T07:06:29.512Z,26.20
2023-05-10T07:07:15.805Z,26.20
2023-05-10T07:08:14.760Z,26.19
2023-05-10T07:09:14.762Z,26.19
2023-05-10T07:10:14.767Z,26.18
2023-05-10T07:11:14.768Z,26.18
2023-05-10T07:12:15.896Z,26.18
2023-05-10T07:13:14.899Z,26.17
2023-05-10T07:14:14.760Z,26.17
2023-05-10T07:15:14.872Z,26.17
2023-05-10T07:16:14.748Z,26.18
2023-05-10T07:17:14.749Z,26.17
2023-05-10T07:18:14.831Z,26.18
2023-05-10T07:19:14.861Z,26.17
2023-05-10T07:20:15.367Z,26.19
2023-05-10T07:21:15.992Z,26.20
2023-05-10T07:22:15.083Z,26.20
2023-05-10T07:23:15.120Z,26.21
2023-05-10T07:24:15.161Z,26.22
2023-05-10T07:25:15.466Z,26.22
2023-05-10T07:26:15.282Z,26.22
2023-05-10T07:27:15.325Z,26.22
2023-05-10T07:28:15.399Z,26.22
2023-05-10T07:29:15.473Z,26.21
2023-05-10T07:30:15.514Z,26.21
2023-05-10T07:31:15.551Z,26.21
2023-05-10T07:32:15.735Z,26.22
2023-05-10T07:33:15.811Z,26.23
2023-05-10T07:34:15.783Z,26.23
2023-05-10T07:35:16.072Z,26.24
2023-05-10T07:36:15.870Z,26.24
2023-05-10T07:37:15.925Z,26.25
2023-05-10T07:38:15.993Z,26.24
2023-05-10T07:39:24.409Z,26.25
2023-05-10T07:40:17.027Z,26.25
2023-05-10T07:41:16.019Z,26.25
2023-05-10T07:42:16.023Z,26.25
2023-05-10T07:43:16.016Z,26.24
2023-05-10T07:44:15.975Z,26.23
2023-05-10T07:45:16.190Z,26.23
2023-05-10T07:46:16.063Z,26.24
2023-05-10T07:47:16.019Z,26.24
2023-05-10T07:48:15.989Z,26.25
2023-05-10T07:49:15.986Z,26.27
2023-05-10T07:50:15.976Z,26.29
2023-05-10T07:51:16.078Z,26.29
2023-05-10T07:52:16.163Z,26.31
2023-05-10T07:53:16.167Z,26.32
2023-05-10T07:54:16.189Z,26.33
2023-05-10T07:55:16.478Z,26.34
2023-05-10T07:56:16.264Z,26.34
2023-05-10T07:57:16.343Z,26.35
2023-05-10T07:58:16.415Z,26.35
2023-05-10T07:59:16.425Z,26.36
2023-05-10T08:00:16.473Z,26.37
2023-05-10T08:01:16.528Z,26.37
2023-05-10T08:02:16.604Z,26.37
2023-05-10T08:03:16.738Z,26.36
2023-05-10T08:04:16.751Z,26.35
2023-05-10T08:05:16.836Z,26.34
2023-05-10T08:06:16.778Z,26.32
2023-05-10T08:07:16.810Z,26.32
2023-05-10T08:08:16.891Z,26.30
2023-05-10T08:09:16.956Z,26.29
2023-05-10T08:10:17.007Z,26.28
2023-05-10T08:11:17.026Z,26.26
2023-05-10T08:12:17.080Z,26.25
2023-05-10T08:13:17.125Z,26.23
2023-05-10T08:14:17.238Z,26.22
2023-05-10T08:15:17.520Z,26.21
2023-05-10T08:16:17.472Z,26.20
2023-05-10T08:17:19.692Z,26.18
2023-05-10T08:18:17.380Z,26.17
2023-05-10T08:19:17.341Z,26.16
2023-05-10T08:20:17.404Z,26.16
2023-05-10T08:21:17.404Z,26.16
2023-05-10T08:22:17.344Z,26.16
2023-05-10T08:23:17.323Z,26.16
2023-05-10T08:24:17.324Z,26.17
2023-05-10T08:25:17.615Z,26.17
2023-05-10T08:26:17.335Z,26.17
2023-05-10T08:27:17.301Z,26.14
2023-05-10T08:28:17.308Z,26.04
2023-05-10T08:29:17.310Z,25.96
2023-05-10T08:30:17.395Z,25.89
2023-05-10T08:31:17.370Z,25.87
2023-05-10T08:32:17.292Z,25.86
2023-05-10T08:33:17.323Z,25.85
2023-05-10T08:34:17.286Z,25.85
2023-05-10T08:35:17.615Z,25.82
2023-05-10T08:36:17.253Z,25.84
2023-05-10T08:37:17.282Z,25.87
2023-05-10T08:38:17.227Z,25.90
2023-05-10T08:39:29.332Z,25.94
2023-05-10T08:40:18.446Z,25.98
2023-05-10T08:41:17.329Z,26.04
2023-05-10T08:42:17.229Z,26.09
2023-05-10T08:43:17.235Z,26.14
2023-05-10T08:44:17.213Z,26.19
2023-05-10T08:45:17.418Z,26.24
2023-05-10T08:46:17.242Z,26.27
2023-05-10T08:47:17.185Z,26.31
2023-05-10T08:48:17.213Z,26.34
2023-05-10T08:49:17.164Z,26.36
2023-05-10T08:50:17.236Z,26.38
2023-05-10T08:51:17.400Z,26.38
2023-05-10T08:52:17.341Z,26.38
2023-05-10T08:53:17.397Z,26.38
2023-05-10T08:54:17.437Z,26.39
2023-05-10T08:55:17.720Z,26.40
2023-05-10T08:56:17.542Z,26.41
2023-05-10T08:57:17.574Z,26.44
2023-05-10T08:58:17.620Z,26.45
2023-05-10T08:59:17.662Z,26.48
2023-05-10T09:00:17.675Z,26.49
2023-05-10T09:01:17.782Z,26.50
2023-05-10T09:02:18.878Z,26.51
2023-05-10T09:03:17.839Z,26.51
2023-05-10T09:04:17.967Z,26.51
2023-05-10T09:05:18.096Z,26.52
2023-05-10T09:06:18.417Z,26.50
2023-05-10T09:07:17.994Z,26.51
2023-05-10T09:08:18.005Z,26.52
2023-05-10T09:09:18.027Z,26.54
2023-05-10T09:10:18.037Z,26.56
2023-05-10T09:11:18.418Z,26.58
2023-05-10T09:12:18.073Z,26.60
2023-05-10T09:13:18.198Z,26.61
2023-05-10T09:14:18.156Z,26.62
2023-05-10T09:15:18.382Z,26.65
2023-05-10T09:16:21.654Z,26.68
2023-05-10T09:17:18.271Z,26.69
2023-05-10T09:18:18.238Z,26.71
2023-05-10T09:19:18.172Z,26.72
2023-05-10T09:20:18.217Z,26.71
2023-05-10T09:21:18.173Z,26.73
2023-05-10T09:22:18.171Z,26.74
2023-05-10T09:23:18.140Z,26.74
2023-05-10T09:24:18.139Z,26.75
2023-05-10T09:25:19.265Z,26.77
2023-05-10T09:26:18.464Z,26.78
2023-05-10T09:27:18.112Z,26.80
2023-05-10T09:28:18.128Z,26.81
2023-05-10T09:29:18.231Z,26.82
2023-05-10T09:30:18.105Z,26.83
2023-05-10T09:31:18.899Z,26.84
2023-05-10T09:32:18.095Z,26.84
2023-05-10T09:33:18.088Z,26.85
2023-05-10T09:34:18.102Z,26.84
2023-05-10T09:35:18.233Z,26.84
2023-05-10T09:36:18.146Z,26.86
2023-05-10T09:37:18.084Z,26.87
2023-05-10T09:38:18.068Z,26.87
2023-05-10T09:39:18.050Z,26.89
2023-05-10T09:40:18.079Z,26.90
2023-05-10T09:41:18.453Z,26.92
2023-05-10T09:42:18.019Z,26.93
2023-05-10T09:43:18.040Z,26.93
2023-05-10T09:44:18.026Z,26.94
2023-05-10T09:45:18.172Z,26.95
2023-05-10T09:46:18.056Z,26.95
2023-05-10T09:47:17.990Z,26.95
2023-05-10T09:48:18.010Z,26.96
2023-05-10T09:49:17.978Z,26.97
2023-05-10T09:50:18.030Z,26.98
2023-05-10T09:51:18.437Z,26.99
2023-05-10T09:52:17.977Z,27.00
2023-05-10T09:53:17.969Z,26.98
2023-05-10T09:54:17.976Z,26.98
2023-05-10T09:55:18.190Z,26.97
2023-05-10T09:56:18.428Z,26.94
2023-05-10T09:57:17.951Z,26.90
2023-05-10T09:58:18.015Z,26.87
2023-05-10T09:59:17.933Z,26.84
2023-05-10T10:00:17.913Z,26.82
2023-05-10T10:01:17.968Z,26.79
2023-05-10T10:02:17.927Z,26.78
2023-05-10T10:03:17.953Z,26.75
2023-05-10T10:04:17.904Z,26.74
2023-05-10T10:05:18.109Z,26.72
2023-05-10T10:06:29.056Z,26.70
2023-05-10T10:07:18.877Z,26.70
2023-05-10T10:08:17.874Z,26.71
2023-05-10T10:09:17.856Z,26.71
2023-05-10T10:10:17.855Z,26.72
2023-05-10T10:11:17.954Z,26.72
2023-05-10T10:12:17.820Z,26.70
2023-05-10T10:13:17.822Z,26.70
2023-05-10T10:14:17.837Z,26.69
2023-05-10T10:15:18.374Z,26.70
2023-05-10T10:16:17.871Z,26.71
2023-05-10T10:17:17.824Z,26.71
2023-05-10T10:18:17.825Z,26.71
2023-05-10T10:19:17.791Z,26.70
2023-05-10T10:20:18.038Z,26.69
2023-05-10T10:21:17.788Z,26.71
2023-05-10T10:22:17.791Z,26.71
2023-05-10T10:23:17.987Z,26.71
2023-05-10T10:24:17.752Z,26.70
2023-05-10T10:25:18.099Z,26.68
2023-05-10T10:26:17.972Z,26.69
2023-05-10T10:27:17.801Z,26.69
2023-05-10T10:28:17.833Z,26.68
2023-05-10T10:29:17.902Z,26.70
2023-05-10T10:30:17.905Z,26.70
2023-05-10T10:31:17.993Z,26.70
2023-05-10T10:32:17.984Z,26.70
2023-05-10T10:33:27.920Z,26.70
2023-05-10T10:34:19.031Z,26.71
2023-05-10T10:35:18.301Z,26.71
2023-05-10T10:36:19.385Z,26.71
2023-05-10T10:37:18.044Z,26.71
2023-05-10T10:38:17.967Z,26.72
2023-05-10T10:39:17.975Z,26.74
2023-05-10T10:40:17.994Z,26.72
2023-05-10T10:41:17.954Z,26.70
2023-05-10T10:42:17.961Z,26.69
2023-05-10T10:43:17.944Z,26.69
2023-05-10T10:44:17.940Z,26.69
2023-05-10T10:45:18.305Z,26.69
2023-05-10T10:46:18.076Z,26.69
2023-05-10T10:47:18.013Z,26.70
2023-05-10T10:48:17.918Z,26.69
2023-05-10T10:49:17.942Z,26.67
2023-05-10T10:50:17.876Z,26.63
2023-05-10T10:51:17.859Z,26.61
2023-05-10T10:52:17.896Z,26.57
2023-05-10T10:53:18.040Z,26.56
2023-05-10T10:54:17.980Z,26.54
2023-05-10T10:55:18.250Z,26.55
2023-05-10T10:56:18.099Z,26.57
2023-05-10T10:57:18.138Z,26.57
2023-05-10T10:58:18.184Z,26.59
2023-05-10T10:59:18.291Z,26.59
2023-05-10T11:00:18.348Z,26.59
2023-05-10T11:01:18.467Z,26.59
2023-05-10T11:02:18.567Z,26.60
2023-05-10T11:03:18.486Z,26.59
2023-05-10T11:04:18.534Z,26.57
2023-05-10T11:05:18.645Z,26.56
2023-05-10T11:06:18.626Z,26.54
2023-05-10T11:07:18.663Z,26.56
2023-05-10T11:08:18.697Z,26.57
2023-05-10T11:09:18.767Z,26.57
2023-05-10T11:10:18.781Z,26.57
2023-05-10T11:11:18.880Z,26.57
2023-05-10T11:12:18.883Z,26.55
2023-05-10T11:13:18.994Z,26.54
2023-05-10T11:14:19.033Z,26.53
2023-05-10T11:15:19.083Z,26.53
2023-05-10T11:16:19.195Z,26.55
2023-05-10T11:17:19.119Z,26.53
2023-05-10T11:18:19.191Z,26.54
2023-05-10T11:19:19.205Z,26.54
2023-05-10T11:20:19.487Z,26.53
2023-05-10T11:21:19.324Z,26.53
2023-05-10T11:22:19.357Z,26.53
2023-05-10T11:23:19.431Z,26.53
2023-05-10T11:24:19.443Z,26.52
2023-05-10T11:25:19.538Z,26.53
2023-05-10T11:26:19.562Z,26.52
2023-05-10T11:27:20.006Z,26.48
2023-05-10T11:28:19.685Z,26.45
2023-05-10T11:29:19.723Z,26.40
2023-05-10T11:30:19.977Z,26.36
2023-05-10T11:31:19.939Z,26.36
2023-05-10T11:32:19.996Z,26.37
2023-05-10T11:33:19.935Z,26.38
2023-05-10T11:34:19.999Z,26.39
2023-05-10T11:35:20.072Z,26.41
2023-05-10T11:36:20.096Z,26.43
2023-05-10T11:37:20.490Z,26.43
2023-05-10T11:38:20.201Z,26.45
2023-05-10T11:39:20.327Z,26.46
2023-05-10T11:40:20.488Z,26.47
2023-05-10T11:41:20.334Z,26.48
2023-05-10T11:42:20.440Z,26.49
2023-05-10T11:43:20.488Z,26.50
2023-05-10T11:44:20.470Z,26.51
2023-05-10T11:45:20.533Z,26.53
2023-05-10T11:46:20.538Z,26.54
2023-05-10T11:47:20.672Z,26.54
2023-05-10T11:48:20.676Z,26.55
2023-05-10T11:49:20.694Z,26.56
2023-05-10T11:50:20.727Z,26.55
2023-05-10T11:51:20.824Z,26.57
2023-05-10T11:52:20.816Z,26.56
2023-05-10T11:53:20.827Z,26.57
2023-05-10T11:54:20.856Z,26.58
2023-05-10T11:55:20.878Z,26.58
2023-05-10T11:56:20.896Z,26.57
2023-05-10T11:57:20.935Z,26.57
2023-05-10T11:58:20.973Z,26.59
2023-05-10T11:59:21.011Z,26.58
2023-05-10T12:00:21.031Z,26.58
2023-05-10T12:01:21.031Z,26.58
2023-05-10T12:02:21.135Z,26.58
2023-05-10T12:03:21.176Z,26.58
2023-05-10T12:04:21.411Z,26.58
2023-05-10T12:05:21.196Z,26.59
2023-05-10T12:06:21.218Z,26.58
2023-05-10T12:07:21.243Z,26.58
2023-05-10T12:08:21.268Z,26.58
2023-05-10T12:09:35.406Z,26.58
2023-05-10T12:10:22.322Z,26.58
2023-05-10T12:11:21.246Z,26.57
2023-05-10T12:12:21.252Z,26.57
2023-05-10T12:13:21.265Z,26.58
2023-05-10T12:14:21.222Z,26.58
2023-05-10T12:15:21.235Z,26.58
2023-05-10T12:16:21.307Z,26.57
2023-05-10T12:17:21.294Z,26.57
2023-05-10T12:18:21.241Z,26.57
2023-05-10T12:19:21.232Z,26.57
2023-05-10T12:20:21.197Z,26.57
2023-05-10T12:21:21.202Z,26.57
2023-05-10T12:22:21.191Z,26.57
2023-05-10T12:23:21.161Z,26.57
2023-05-10T12:24:21.193Z,26.57
2023-05-10T12:25:21.171Z,26.57
2023-05-10T12:26:21.157Z,26.56
2023-05-10T12:27:21.166Z,26.57
2023-05-10T12:28:21.181Z,26.57
2023-05-10T12:29:21.284Z,26.57
2023-05-10T12:30:21.261Z,26.57
2023-05-10T12:31:21.294Z,26.57
2023-05-10T12:32:21.320Z,26.56
2023-05-10T12:33:21.369Z,26.57
2023-05-10T12:34:21.396Z,26.56
2023-05-10T12:35:21.394Z,26.57
2023-05-10T12:36:21.440Z,26.57
2023-05-10T12:37:21.492Z,26.57
2023-05-10T12:38:21.525Z,26.57
2023-05-10T12:39:21.534Z,26.57
2023-05-10T12:40:21.558Z,26.57
2023-05-10T12:41:21.609Z,26.57
2023-05-10T12:42:21.628Z,26.57
2023-05-10T12:43:21.664Z,26.57
2023-05-10T12:44:21.679Z,26.57
2023-05-10T12:45:21.707Z,26.57
2023-05-10T12:46:21.800Z,26.57
2023-05-10T12:47:21.735Z,26.57
2023-05-10T12:48:21.776Z,26.57
2023-05-10T12:49:21.800Z,26.58
2023-05-10T12:50:21.847Z,26.58
2023-05-10T12:51:21.841Z,26.57
2023-05-10T12:52:21.885Z,26.57